KBLV/BLV METAR and TAF weather

Enter ICAO airport designator
Station Type Date Time Source
KBLV METAR 2021/05/15 22:56 UTC NOAA

KBLV 152256Z 17005KT 10SM FEW085 17/09 A3015 RMK AO2A SLP213 T01650089 $


Station Type Date Time Source
KBLV Decoded METAR 2021/05/15 22:56 UTC NOAA

Belleville, Scott AFB/MidAmerica Airport, IL, United States (KBLV) 38-33N 089-51W
May 15, 2021 - 06:56 PM EDT / 2021.05.15 2256 UTC
Wind: from the S (170 degrees) at 6 MPH (5 KT):0
Visibility: 10 mile(s):0
Sky conditions: mostly clear
Temperature: 61.7 F (16.5 C)
Dew Point: 48.0 F (8.9 C)
Relative Humidity: 60%
Pressure (altimeter): 30.15 in. Hg (1020 hPa)
ob: KBLV 152256Z 17005KT 10SM FEW085 17/09 A3015 RMK AO2A SLP213 T01650089
cycle: 23

Station Type Date Time Source
KBLV TAF 2021/05/15 17:51 UTC NOAA

TAF
AMD KBLV 151743Z 1517/1622 15006KT 8000 -RA OVC030 QNH3020INS
BECMG 1520/1521 15006KT 9999 NSW OVC030 QNH3018INS
BECMG 1611/1612 13006KT 8000 -RA OVC010 QNH3012INS
BECMG 1618/1619 12006KT 8000 -RA OVC008 QNH3008INS TX18/1521Z TN13/1606Z

Example: see airport list